createdAt,value
2022-12-18T00:02:49.480Z,-1.39
2022-12-18T00:05:53.245Z,-1.31
2022-12-18T00:08:57.187Z,-1.33
2022-12-18T00:11:59.629Z,-1.38
2022-12-18T00:15:01.789Z,-1.53
2022-12-18T00:18:04.533Z,-1.64
2022-12-18T00:21:08.485Z,-1.62
2022-12-18T00:24:11.990Z,-1.59
2022-12-18T00:27:14.113Z,-1.59
2022-12-18T00:30:16.626Z,-1.63
2022-12-18T00:33:19.209Z,-1.62
2022-12-18T00:36:33.560Z,-1.62
2022-12-18T00:39:35.848Z,-1.41
2022-12-18T00:42:56.386Z,-1.46
2022-12-18T00:45:58.605Z,-1.60
2022-12-18T00:49:01.567Z,-1.77
2022-12-18T00:52:03.722Z,-1.76
2022-12-18T00:55:06.811Z,-1.89
2022-12-18T00:58:10.215Z,-1.90
2022-12-18T01:01:12.808Z,-1.79
2022-12-18T01:04:15.542Z,-1.75
2022-12-18T01:07:20.814Z,-1.81
2022-12-18T01:10:24.517Z,-1.86
2022-12-18T01:13:27.034Z,-1.77
2022-12-18T01:16:29.227Z,-1.79
2022-12-18T01:19:32.534Z,-1.82
2022-12-18T01:22:34.751Z,-1.91
2022-12-18T01:25:37.691Z,-2.08
2022-12-18T01:28:41.081Z,-2.00
2022-12-18T01:31:43.733Z,-2.00
2022-12-18T01:34:45.949Z,-2.05
2022-12-18T01:37:48.382Z,-1.99
2022-12-18T01:40:50.530Z,-1.94
2022-12-18T01:43:58.236Z,-2.08
2022-12-18T01:47:00.897Z,-2.06
2022-12-18T01:50:15.692Z,-2.06
2022-12-18T01:53:21.570Z,-2.36
2022-12-18T01:56:24.211Z,-2.29
2022-12-18T01:59:26.516Z,-2.34
2022-12-18T02:02:30.676Z,-2.71
2022-12-18T02:05:54.089Z,-2.57
2022-12-18T02:09:14.827Z,-2.31
2022-12-18T02:12:22.175Z,-2.10
2022-12-18T02:15:53.691Z,-2.10
2022-12-18T02:19:00.131Z,-2.01
2022-12-18T02:22:12.521Z,-2.22
2022-12-18T02:25:27.296Z,-2.65
2022-12-18T02:28:34.429Z,-2.50
2022-12-18T02:31:43.536Z,-2.80
2022-12-18T02:34:47.271Z,-2.80
2022-12-18T02:37:50.967Z,-2.81
2022-12-18T02:40:54.754Z,-2.81
2022-12-18T02:44:03.010Z,-2.87
2022-12-18T02:47:06.380Z,-2.80
2022-12-18T02:50:19.736Z,-2.79
2022-12-18T02:53:58.859Z,-2.96
2022-12-18T02:57:13.473Z,-2.83
2022-12-18T03:00:21.463Z,-3.14
2022-12-18T03:03:47.026Z,-3.20
2022-12-18T03:06:56.693Z,-3.13
2022-12-18T03:10:02.048Z,-3.13
2022-12-18T03:13:09.402Z,-3.08
2022-12-18T03:16:18.943Z,-3.26
2022-12-18T03:19:24.936Z,-3.42
2022-12-18T03:22:30.858Z,-3.41
2022-12-18T03:25:34.430Z,-3.30
2022-12-18T03:28:43.347Z,-3.23
2022-12-18T03:31:55.299Z,-3.05
2022-12-18T03:35:01.939Z,-3.08
2022-12-18T03:38:05.670Z,-2.99
2022-12-18T03:41:24.799Z,-2.93
2022-12-18T03:44:41.498Z,-2.88
2022-12-18T03:48:02.787Z,-3.32
2022-12-18T03:51:16.159Z,-3.17
2022-12-18T03:54:20.043Z,-3.52
2022-12-18T03:57:29.402Z,-3.54
2022-12-18T04:00:33.121Z,-3.80
2022-12-18T04:03:38.619Z,-3.38
2022-12-18T04:06:44.471Z,-3.63
2022-12-18T04:09:49.953Z,-3.45
2022-12-18T04:12:57.406Z,-3.29
2022-12-18T04:16:00.488Z,-3.63
2022-12-18T04:19:03.112Z,-3.82
2022-12-18T04:22:06.674Z,-3.69
2022-12-18T04:25:10.062Z,-3.64
2022-12-18T04:28:12.974Z,-3.56
2022-12-18T04:31:15.156Z,-3.32
2022-12-18T04:34:17.843Z,-3.21
2022-12-18T04:37:20.409Z,-3.12
2022-12-18T04:40:24.663Z,-3.16
2022-12-18T04:43:27.196Z,-3.42
2022-12-18T04:46:29.842Z,-3.64
2022-12-18T04:49:32.040Z,-3.86
2022-12-18T04:52:34.719Z,-3.39
2022-12-18T04:55:36.854Z,-3.46
2022-12-18T04:58:41.352Z,-3.51
2022-12-18T05:01:43.733Z,-3.52
2022-12-18T05:04:47.019Z,-3.39
2022-12-18T05:07:49.232Z,-3.65
2022-12-18T05:11:00.337Z,-3.84
2022-12-18T05:14:02.434Z,-3.68
2022-12-18T05:17:04.870Z,-3.55
2022-12-18T05:20:07.448Z,-3.75
2022-12-18T05:23:09.911Z,-3.97
2022-12-18T05:26:16.522Z,-4.09
2022-12-18T05:29:18.948Z,-3.93
2022-12-18T05:32:21.120Z,-3.85
2022-12-18T05:35:23.586Z,-3.77
2022-12-18T05:38:27.627Z,-3.99
2022-12-18T05:41:30.071Z,-3.84
2022-12-18T05:44:32.224Z,-3.90
2022-12-18T05:47:34.761Z,-4.13
2022-12-18T05:50:38.039Z,-4.02
2022-12-18T05:53:40.755Z,-3.69
2022-12-18T05:56:48.519Z,-3.68
2022-12-18T05:59:51.355Z,-3.67
2022-12-18T06:02:53.639Z,-3.81
2022-12-18T06:05:56.179Z,-3.81
2022-12-18T06:09:01.073Z,-3.93
2022-12-18T06:12:03.701Z,-3.72
2022-12-18T06:15:06.706Z,-3.76
2022-12-18T06:18:09.161Z,-3.95
2022-12-18T06:21:11.371Z,-4.08
2022-12-18T06:24:13.774Z,-4.15
2022-12-18T06:27:16.207Z,-4.12
2022-12-18T06:30:18.701Z,-3.88
2022-12-18T06:33:20.823Z,-3.74
2022-12-18T06:36:23.302Z,-3.82
2022-12-18T06:39:25.889Z,-3.72
2022-12-18T06:42:29.574Z,-3.94
2022-12-18T06:45:31.764Z,-3.93
2022-12-18T06:48:34.497Z,-3.88
2022-12-18T06:51:36.823Z,-3.99
2022-12-18T06:54:39.218Z,-3.98
2022-12-18T06:57:41.404Z,-3.91
2022-12-18T07:00:43.934Z,-3.76
2022-12-18T07:03:46.557Z,-3.87
2022-12-18T07:06:49.040Z,-3.94
2022-12-18T07:09:52.233Z,-3.83
2022-12-18T07:12:54.728Z,-3.83
2022-12-18T07:15:56.977Z,-3.91
2022-12-18T07:18:59.457Z,-4.01
2022-12-18T07:22:02.508Z,-3.74
2022-12-18T07:25:05.933Z,-3.48
2022-12-18T07:28:10.574Z,-3.52
2022-12-18T07:31:19.505Z,-3.38
2022-12-18T07:34:23.665Z,-3.38
2022-12-18T07:37:26.122Z,-3.27
2022-12-18T07:40:28.288Z,-2.97
2022-12-18T07:43:30.840Z,-3.33
2022-12-18T07:46:32.971Z,-2.94
2022-12-18T07:49:35.445Z,-2.63
2022-12-18T07:52:37.591Z,-2.88
2022-12-18T07:56:05.353Z,-2.95
2022-12-18T07:59:05.288Z,-2.90
2022-12-18T08:02:07.901Z,-2.81
2022-12-18T08:05:10.562Z,-2.49
2022-12-18T08:08:12.689Z,-2.51
2022-12-18T08:11:15.115Z,-2.29
2022-12-18T08:14:17.384Z,-2.14
2022-12-18T08:17:20.871Z,-2.21
2022-12-18T08:20:23.103Z,-2.29
2022-12-18T08:23:28.632Z,-2.08
2022-12-18T08:26:32.393Z,-1.50
2022-12-18T08:29:34.844Z,-1.31
2022-12-18T08:32:37.425Z,-1.21
2022-12-18T08:35:45.599Z,-1.46
2022-12-18T08:38:48.593Z,-1.34
2022-12-18T08:42:10.419Z,-1.10
2022-12-18T08:45:12.808Z,-0.68
2022-12-18T08:48:19.298Z,-0.59
2022-12-18T08:51:24.286Z,-0.49
2022-12-18T08:54:27.720Z,-0.30
2022-12-18T08:57:29.961Z,-0.65
2022-12-18T09:00:32.510Z,-0.38
2022-12-18T09:03:34.736Z,-0.48
2022-12-18T09:06:37.918Z,-0.33
2022-12-18T09:09:40.350Z,-0.21
2022-12-18T09:12:42.777Z,-0.32
2022-12-18T09:15:47.448Z,-0.66
2022-12-18T09:18:50.019Z,0.02
2022-12-18T09:21:52.249Z,0.24
2022-12-18T09:24:54.959Z,0.20
2022-12-18T09:27:57.077Z,-0.05
2022-12-18T09:30:59.698Z,0.24
2022-12-18T09:34:01.877Z,0.29
2022-12-18T09:37:04.372Z,0.41
2022-12-18T09:40:07.128Z,0.49
2022-12-18T09:43:18.729Z,0.81
2022-12-18T09:46:29.468Z,0.54
2022-12-18T09:49:36.029Z,0.62
2022-12-18T09:52:42.802Z,0.58
2022-12-18T09:55:47.710Z,0.57
2022-12-18T09:59:04.295Z,1.14
2022-12-18T10:02:17.462Z,1.07
2022-12-18T10:05:40.412Z,0.67
2022-12-18T10:09:09.080Z,1.15
2022-12-18T10:12:28.728Z,1.30
2022-12-18T10:15:57.550Z,0.96
2022-12-18T10:19:06.800Z,1.12
2022-12-18T10:22:17.660Z,1.42
2022-12-18T10:25:25.490Z,1.46
2022-12-18T10:28:30.159Z,1.50
2022-12-18T10:31:32.770Z,1.51
2022-12-18T10:34:35.041Z,1.69
2022-12-18T10:37:37.754Z,1.77
2022-12-18T10:40:50.265Z,1.88
2022-12-18T10:44:21.938Z,1.97
2022-12-18T10:47:24.162Z,2.19
2022-12-18T10:51:01.824Z,2.11
2022-12-18T10:54:00.811Z,2.06
2022-12-18T10:57:28.478Z,1.99
2022-12-18T11:00:31.659Z,2.08
2022-12-18T11:03:40.727Z,2.32
2022-12-18T11:07:12.206Z,2.10
2022-12-18T11:10:18.946Z,2.25
2022-12-18T11:13:24.647Z,2.52
2022-12-18T11:16:28.730Z,2.35
2022-12-18T11:19:40.704Z,2.15
2022-12-18T11:22:43.718Z,2.17
2022-12-18T11:25:54.716Z,2.55
2022-12-18T11:29:16.762Z,2.42
2022-12-18T11:32:40.932Z,2.57
2022-12-18T11:36:03.689Z,2.57
2022-12-18T11:39:18.289Z,2.35
2022-12-18T11:42:42.165Z,2.48
2022-12-18T11:45:53.618Z,2.64
2022-12-18T11:49:18.307Z,2.58
2022-12-18T11:52:51.519Z,2.58
2022-12-18T11:56:02.531Z,2.40
2022-12-18T11:59:16.631Z,2.39
2022-12-18T12:02:28.409Z,2.44
2022-12-18T12:05:49.721Z,2.56
2022-12-18T12:09:05.650Z,2.75
2022-12-18T12:12:49.386Z,2.70
2022-12-18T12:16:13.868Z,2.81
2022-12-18T12:19:40.632Z,2.99
2022-12-18T12:22:57.451Z,2.94
2022-12-18T12:26:03.924Z,3.21
2022-12-18T12:29:13.411Z,3.17
2022-12-18T12:32:24.044Z,3.07
2022-12-18T12:35:50.328Z,2.92
2022-12-18T12:39:02.334Z,3.14
2022-12-18T12:42:29.172Z,3.08
2022-12-18T12:45:41.430Z,2.99
2022-12-18T12:48:53.972Z,3.14
2022-12-18T12:52:07.013Z,2.87
2022-12-18T12:55:18.455Z,2.95
2022-12-18T12:58:37.262Z,3.05
2022-12-18T13:01:54.071Z,2.99
2022-12-18T13:05:02.920Z,2.81
2022-12-18T13:08:08.618Z,2.77
2022-12-18T13:11:59.487Z,2.66
2022-12-18T13:15:36.834Z,2.55
2022-12-18T13:18:53.628Z,2.76
2022-12-18T13:21:57.318Z,2.74
2022-12-18T13:25:00.461Z,2.73
2022-12-18T13:28:17.473Z,2.71
2022-12-18T13:31:43.461Z,2.57
2022-12-18T13:34:45.716Z,2.35
2022-12-18T13:37:56.156Z,2.40
2022-12-18T13:41:02.235Z,2.34
2022-12-18T13:44:25.090Z,2.34
2022-12-18T13:47:34.107Z,2.26
2022-12-18T13:50:37.129Z,2.24
2022-12-18T13:53:45.632Z,2.37
2022-12-18T13:56:49.427Z,2.27
2022-12-18T13:59:52.453Z,2.28
2022-12-18T14:02:56.270Z,2.27
2022-12-18T14:06:06.909Z,2.17
2022-12-18T14:09:19.003Z,2.03
2022-12-18T14:12:45.582Z,2.05
2022-12-18T14:15:50.031Z,1.96
2022-12-18T14:19:02.738Z,1.95
2022-12-18T14:22:22.341Z,1.82
2022-12-18T14:25:27.149Z,1.79
2022-12-18T14:28:29.625Z,1.74
2022-12-18T14:31:32.738Z,1.56
2022-12-18T14:34:34.929Z,1.51
2022-12-18T14:37:40.966Z,1.40
2022-12-18T14:40:44.495Z,1.31
2022-12-18T14:43:49.241Z,1.23
2022-12-18T14:46:52.240Z,1.14
2022-12-18T14:49:55.381Z,1.03
2022-12-18T14:52:57.666Z,0.88
2022-12-18T14:56:00.838Z,0.84
2022-12-18T14:59:23.774Z,0.76
2022-12-18T15:02:29.462Z,0.65
2022-12-18T15:05:32.574Z,0.55
2022-12-18T15:08:38.421Z,0.55
2022-12-18T15:11:40.509Z,0.48
2022-12-18T15:14:43.132Z,0.32
2022-12-18T15:17:45.310Z,0.28
2022-12-18T15:20:50.006Z,0.23
2022-12-18T15:23:53.510Z,0.18
2022-12-18T15:26:56.176Z,0.11
2022-12-18T15:30:26.786Z,0.10
2022-12-18T15:33:43.183Z,-0.04
2022-12-18T15:36:46.023Z,-0.14
2022-12-18T15:39:48.525Z,-0.28
2022-12-18T15:43:13.420Z,-0.24
2022-12-18T15:46:24.221Z,-0.27
2022-12-18T15:49:26.554Z,-0.30
2022-12-18T15:52:29.193Z,-0.39
2022-12-18T15:55:49.786Z,-0.50
2022-12-18T15:58:52.289Z,-0.50
2022-12-18T16:01:54.610Z,-0.51
2022-12-18T16:04:57.550Z,-0.57
2022-12-18T16:07:59.775Z,-0.63
2022-12-18T16:11:02.728Z,-0.68
2022-12-18T16:14:07.210Z,-0.71
2022-12-18T16:17:12.525Z,-0.75
2022-12-18T16:20:17.051Z,-0.79
2022-12-18T16:23:19.512Z,-0.84
2022-12-18T16:26:21.654Z,-0.94
2022-12-18T16:29:27.889Z,-0.84
2022-12-18T16:32:30.101Z,-0.91
2022-12-18T16:35:33.570Z,-0.86
2022-12-18T16:38:35.755Z,-0.85
2022-12-18T16:41:38.312Z,-0.89
2022-12-18T16:44:40.545Z,-0.95
2022-12-18T16:47:43.408Z,-0.95
2022-12-18T16:50:45.574Z,-1.11
2022-12-18T16:53:48.069Z,-1.06
2022-12-18T16:56:51.376Z,-1.31
2022-12-18T16:59:53.958Z,-1.40
2022-12-18T17:02:56.194Z,-1.33
2022-12-18T17:06:05.456Z,-1.63
2022-12-18T17:09:11.766Z,-1.55
2022-12-18T17:12:14.295Z,-1.48
2022-12-18T17:15:16.485Z,-1.57
2022-12-18T17:18:19.742Z,-2.15
2022-12-18T17:21:22.026Z,-1.97
2022-12-18T17:24:24.751Z,-1.84
2022-12-18T17:27:26.916Z,-1.93
2022-12-18T17:30:29.891Z,-1.78
2022-12-18T17:33:32.467Z,-1.73
2022-12-18T17:36:34.958Z,-1.71
2022-12-18T17:39:37.266Z,-1.69
2022-12-18T17:42:39.752Z,-1.59
2022-12-18T17:45:44.914Z,-1.64
2022-12-18T17:48:48.025Z,-2.03
2022-12-18T17:51:50.298Z,-1.94
2022-12-18T17:54:52.796Z,-2.29
2022-12-18T17:57:55.449Z,-2.43
2022-12-18T18:00:57.924Z,-2.30
2022-12-18T18:04:01.971Z,-2.17
2022-12-18T18:07:04.271Z,-2.36
2022-12-18T18:10:08.187Z,-2.49
2022-12-18T18:13:44.913Z,-2.59
2022-12-18T18:16:51.320Z,-2.48
2022-12-18T18:19:53.537Z,-2.43
2022-12-18T18:22:57.102Z,-2.34
2022-12-18T18:26:03.921Z,-2.22
2022-12-18T18:29:07.795Z,-2.31
2022-12-18T18:32:10.808Z,-2.14
2022-12-18T18:35:44.736Z,-2.18
2022-12-18T18:38:39.064Z,-2.48
2022-12-18T18:41:42.801Z,-2.42
2022-12-18T18:44:50.230Z,-3.13
2022-12-18T18:47:52.707Z,-3.09
2022-12-18T18:50:59.746Z,-2.88
2022-12-18T18:54:02.747Z,-2.63
2022-12-18T18:57:20.304Z,-2.22
2022-12-18T19:00:23.495Z,-2.24
2022-12-18T19:03:26.212Z,-2.55
2022-12-18T19:06:29.037Z,-2.96
2022-12-18T19:09:32.057Z,-3.14
2022-12-18T19:12:53.449Z,-3.31
2022-12-18T19:16:06.395Z,-3.33
2022-12-18T19:19:09.558Z,-3.54
2022-12-18T19:22:12.227Z,-3.45
2022-12-18T19:25:14.822Z,-3.37
2022-12-18T19:28:22.177Z,-3.50
2022-12-18T19:31:29.168Z,-3.28
2022-12-18T19:34:34.520Z,-3.51
2022-12-18T19:37:36.904Z,-3.61
2022-12-18T19:40:43.496Z,-3.60
2022-12-18T19:43:47.962Z,-3.53
2022-12-18T19:46:51.486Z,-2.99
2022-12-18T19:49:53.971Z,-3.45
2022-12-18T19:52:56.271Z,-3.84
2022-12-18T19:55:58.899Z,-4.03
2022-12-18T19:59:02.009Z,-4.11
2022-12-18T20:02:04.652Z,-3.92
2022-12-18T20:05:09.856Z,-3.80
2022-12-18T20:08:12.638Z,-3.66
2022-12-18T20:11:15.174Z,-3.78
2022-12-18T20:14:22.883Z,-3.90
2022-12-18T20:17:26.129Z,-3.75
2022-12-18T20:20:28.993Z,-3.74
2022-12-18T20:23:32.207Z,-3.57
2022-12-18T20:26:35.928Z,-3.34
2022-12-18T20:29:38.403Z,-3.55
2022-12-18T20:32:40.542Z,-3.38
2022-12-18T20:35:43.362Z,-3.48
2022-12-18T20:38:46.202Z,-3.54
2022-12-18T20:41:50.893Z,-3.68
2022-12-18T20:44:53.055Z,-3.60
2022-12-18T20:47:55.529Z,-3.41
2022-12-18T20:51:04.082Z,-3.55
2022-12-18T20:54:11.533Z,-3.68
2022-12-18T20:57:14.298Z,-4.19
2022-12-18T21:00:20.231Z,-4.18
2022-12-18T21:03:23.514Z,-4.04
2022-12-18T21:06:28.799Z,-3.96
2022-12-18T21:09:37.154Z,-4.22
2022-12-18T21:12:49.708Z,-4.34
2022-12-18T21:16:02.424Z,-4.26
2022-12-18T21:19:05.631Z,-4.27
2022-12-18T21:22:07.942Z,-4.20
2022-12-18T21:25:10.443Z,-3.95
2022-12-18T21:28:12.618Z,-3.76
2022-12-18T21:31:15.158Z,-3.57
2022-12-18T21:34:23.061Z,-3.42
2022-12-18T21:37:25.460Z,-3.03
2022-12-18T21:40:27.566Z,-3.08
2022-12-18T21:44:05.346Z,-3.50
2022-12-18T21:47:17.637Z,-3.45
2022-12-18T21:50:25.564Z,-3.38
2022-12-18T21:53:27.697Z,-3.13
2022-12-18T21:57:06.061Z,-3.12
2022-12-18T22:00:18.174Z,-3.15
2022-12-18T22:03:22.077Z,-3.11
2022-12-18T22:06:24.296Z,-3.07
2022-12-18T22:09:26.822Z,-2.99
2022-12-18T22:12:43.358Z,-3.16
2022-12-18T22:15:47.488Z,-3.23
2022-12-18T22:18:49.816Z,-3.25
2022-12-18T22:21:53.017Z,-3.26
2022-12-18T22:24:55.172Z,-3.59
2022-12-18T22:28:16.285Z,-3.63
2022-12-18T22:31:18.388Z,-3.80
2022-12-18T22:34:23.181Z,-3.67
2022-12-18T22:37:25.642Z,-3.72
2022-12-18T22:40:28.451Z,-3.73
2022-12-18T22:43:30.634Z,-3.60
2022-12-18T22:46:37.674Z,-3.66
2022-12-18T22:49:39.964Z,-3.68
2022-12-18T22:52:42.458Z,-3.60
2022-12-18T22:55:44.602Z,-3.51
2022-12-18T22:58:51.453Z,-3.49
2022-12-18T23:01:58.370Z,-3.35
2022-12-18T23:05:01.655Z,-3.37
2022-12-18T23:08:03.961Z,-3.40
2022-12-18T23:11:06.738Z,-3.40
2022-12-18T23:14:08.942Z,-3.04
2022-12-18T23:17:11.881Z,-2.60
2022-12-18T23:20:14.154Z,-2.53
2022-12-18T23:23:17.283Z,-2.48
2022-12-18T23:26:22.366Z,-2.37
2022-12-18T23:29:24.762Z,-2.43
2022-12-18T23:32:26.941Z,-2.47
2022-12-18T23:35:30.586Z,-2.40
2022-12-18T23:38:33.741Z,-2.64
2022-12-18T23:41:36.290Z,-2.88
2022-12-18T23:44:38.414Z,-3.03
2022-12-18T23:47:40.842Z,-2.80
2022-12-18T23:50:43.033Z,-2.71
2022-12-18T23:53:45.969Z,-2.48
2022-12-18T23:56:48.153Z,-2.43
2022-12-18T23:59:53.210Z,-2.40
